Time;durP1;ratioP1;P1;durP2;ratioP2;P2;SDS_P1;SDS_P2;PMS_P1;PMS_P2;Temp;Humidity;BMP_temperature;BMP_pressure;BME280_temperature;BME280_humidity;BME280_pressure;Samples;Min_cycle;Max_cycle;Signal;HPM_P1;HPM_P2
2021/06/21 00:01:16;;;;;;;1.23;0.90;;;18.70;76.40;;;;;;5100195;28;20090;-82
2021/06/21 00:03:42;;;;;;;0.77;0.77;;;18.70;76.50;;;;;;5084442;28;20040;-83
2021/06/21 00:06:08;;;;;;;0.80;0.80;;;18.70;76.70;;;;;;5101332;28;20032;-80
2021/06/21 00:08:34;;;;;;;0.63;0.63;;;18.60;76.80;;;;;;5049484;28;20122;-84
2021/06/21 00:11:00;;;;;;;0.95;0.77;;;18.50;77.00;;;;;;5066183;28;20509;-80
2021/06/21 00:13:25;;;;;;;0.73;0.73;;;18.50;77.20;;;;;;5100733;28;20035;-82
2021/06/21 00:15:52;;;;;;;0.77;0.77;;;18.40;77.20;;;;;;5066362;28;20035;-82
2021/06/21 00:18:18;;;;;;;2.90;0.80;;;18.40;77.40;;;;;;5060436;28;20057;-80
2021/06/21 00:20:43;;;;;;;0.88;0.80;;;18.30;77.50;;;;;;5045912;28;20037;-83
2021/06/21 00:23:09;;;;;;;1.23;0.80;;;18.30;77.60;;;;;;5063557;28;20040;-81
2021/06/21 00:25:35;;;;;;;0.80;0.63;;;18.20;77.60;;;;;;5098009;28;20342;-82
2021/06/21 00:28:01;;;;;;;1.17;1.08;;;18.20;77.70;;;;;;5078220;28;20551;-82
2021/06/21 00:30:27;;;;;;;0.95;0.80;;;18.20;77.80;;;;;;5061505;28;20071;-81
2021/06/21 00:32:52;;;;;;;1.23;0.90;;;18.10;77.80;;;;;;5064988;28;20447;-81
2021/06/21 00:35:19;;;;;;;0.90;0.70;;;18.00;77.80;;;;;;5080301;28;20085;-82
2021/06/21 00:37:46;;;;;;;1.00;0.85;;;18.10;78.10;;;;;;5046733;28;20405;-82
2021/06/21 00:40:13;;;;;;;0.90;0.90;;;18.00;78.10;;;;;;5081078;28;20130;-81
2021/06/21 00:42:43;;;;;;;1.63;0.90;;;17.90;78.10;;;;;;5095761;28;20044;-81
2021/06/21 00:45:09;;;;;;;1.17;1.00;;;17.90;78.20;;;;;;5096072;28;20060;-80
2021/06/21 00:47:36;;;;;;;1.27;0.90;;;17.80;78.30;;;;;;5062075;28;20051;-81
2021/06/21 00:50:02;;;;;;;0.90;0.90;;;17.80;78.40;;;;;;5061345;28;20035;-81
2021/06/21 00:52:28;;;;;;;1.10;0.98;;;17.70;78.40;;;;;;5098307;28;20524;-81
2021/06/21 00:55:01;;;;;;;1.13;1.00;;;17.60;78.50;;;;;;5086948;28;20052;-81
2021/06/21 00:57:29;;;;;;;1.15;0.98;;;17.60;78.70;;;;;;5085759;28;20040;-83
2021/06/21 00:59:58;;;;;;;1.38;0.90;;;17.50;78.80;;;;;;5065918;28;20028;-83
2021/06/21 01:02:25;;;;;;;0.98;0.95;;;17.40;79.00;;;;;;5052938;28;20072;-83
2021/06/21 01:04:55;;;;;;;1.30;1.20;;;17.40;79.10;;;;;;5082524;28;20118;-87
2021/06/21 01:07:21;;;;;;;1.20;1.00;;;17.30;79.30;;;;;;5022366;28;20053;-83
2021/06/21 01:09:50;;;;;;;0.93;0.63;;;17.20;79.30;;;;;;5039032;28;20422;-84
2021/06/21 01:12:43;;;;;;;1.08;0.98;;;17.20;79.40;;;;;;5023300;28;20491;-82
2021/06/21 01:15:11;;;;;;;0.95;0.90;;;17.20;79.50;;;;;;5008657;28;20092;-85
2021/06/21 01:17:52;;;;;;;1.52;1.00;;;17.10;79.40;;;;;;5040878;28;20056;-84
2021/06/21 01:20:50;;;;;;;1.08;0.90;;;17.00;79.60;;;;;;5005426;28;20052;-83
2021/06/21 01:23:51;;;;;;;1.48;1.10;;;17.00;79.70;;;;;;5039673;28;20046;-83
2021/06/21 01:26:24;;;;;;;0.82;0.80;;;17.00;79.90;;;;;;5009785;28;20059;-83
2021/06/21 01:29:13;;;;;;;1.83;1.00;;;16.90;79.80;;;;;;5009529;28;20467;-82
2021/06/21 01:32:01;;;;;;;1.00;0.90;;;16.80;79.90;;;;;;5039053;28;20075;-82
2021/06/21 01:34:30;;;;;;;1.60;0.98;;;16.80;80.00;;;;;;5023143;28;20049;-83
2021/06/21 01:37:01;;;;;;;1.13;0.90;;;16.70;79.90;;;;;;5019458;28;20077;-83
2021/06/21 01:39:31;;;;;;;0.93;0.90;;;16.80;80.10;;;;;;5079515;28;20043;-84
2021/06/21 01:42:03;;;;;;;1.38;1.02;;;16.70;80.20;;;;;;5061585;28;20490;-82
2021/06/21 01:44:33;;;;;;;1.35;1.20;;;16.60;80.10;;;;;;5064588;28;20093;-83
2021/06/21 01:47:01;;;;;;;1.25;1.00;;;16.50;80.20;;;;;;5098964;28;20036;-82
2021/06/21 01:49:32;;;;;;;1.08;0.98;;;16.50;80.30;;;;;;5082723;28;20552;-85
2021/06/21 01:52:00;;;;;;;1.75;1.00;;;16.40;80.30;;;;;;5080426;28;20047;-81
2021/06/21 01:54:29;;;;;;;2.25;0.90;;;16.50;80.40;;;;;;5063668;28;20068;-82
2021/06/21 01:56:58;;;;;;;1.10;0.88;;;16.40;80.40;;;;;;5063321;28;20126;-85
2021/06/21 01:59:26;;;;;;;0.82;0.80;;;16.40;80.50;;;;;;5064686;28;20078;-82
2021/06/21 02:01:55;;;;;;;0.88;0.88;;;16.40;80.60;;;;;;5078441;28;20904;-81
2021/06/21 02:04:22;;;;;;;1.02;0.90;;;16.30;80.60;;;;;;5096129;28;20047;-82
2021/06/21 02:06:50;;;;;;;0.80;0.80;;;16.30;80.70;;;;;;5077746;28;20036;-83
2021/06/21 02:09:21;;;;;;;0.95;0.85;;;16.30;80.80;;;;;;5060431;28;20478;-82
2021/06/21 02:11:47;;;;;;;;;;;16.20;80.90;;;;;;5060942;28;20039;-83
2021/06/21 02:14:13;;;;;;;0.65;0.65;;;16.20;80.90;;;;;;5059179;28;19919;-82
2021/06/21 02:16:39;;;;;;;0.95;0.90;;;16.10;80.80;;;;;;5059148;28;20590;-82
2021/06/21 02:19:05;;;;;;;1.48;1.00;;;16.10;80.90;;;;;;5058813;28;20040;-83
2021/06/21 02:21:31;;;;;;;0.75;0.75;;;16.10;81.00;;;;;;5059156;28;20055;-82
2021/06/21 02:23:57;;;;;;;1.08;0.85;;;16.10;81.00;;;;;;5076133;28;20036;-85
2021/06/21 02:26:24;;;;;;;1.30;0.75;;;16.00;80.90;;;;;;5077574;28;20123;-83
2021/06/21 02:28:53;;;;;;;0.80;0.80;;;16.00;81.10;;;;;;5076603;28;20043;-82
2021/06/21 02:31:20;;;;;;;0.70;0.70;;;16.00;81.20;;;;;;5059053;28;20040;-84
2021/06/21 02:33:46;;;;;;;0.60;0.60;;;15.90;81.20;;;;;;5075597;28;20439;-83
2021/06/21 02:36:12;;;;;;;0.60;0.55;;;15.90;81.40;;;;;;5058603;28;20040;-83
2021/06/21 02:38:37;;;;;;;1.23;0.60;;;15.80;81.50;;;;;;5075330;28;20393;-84
2021/06/21 02:41:03;;;;;;;1.02;0.70;;;15.80;81.50;;;;;;5059441;28;20036;-82
2021/06/21 02:43:29;;;;;;;0.52;0.52;;;15.80;81.70;;;;;;5059033;28;20044;-83
2021/06/21 02:45:54;;;;;;;1.42;0.68;;;15.80;81.70;;;;;;5042377;28;20047;-83
2021/06/21 02:48:20;;;;;;;0.93;0.80;;;15.70;81.70;;;;;;5041902;28;20063;-82
2021/06/21 02:50:48;;;;;;;0.68;0.68;;;15.80;81.80;;;;;;5058904;28;20374;-83
2021/06/21 02:53:46;;;;;;;0.90;0.60;;;15.70;81.80;;;;;;5093377;28;20102;-83
2021/06/21 02:56:30;;;;;;;0.82;0.70;;;15.70;82.00;;;;;;5058352;28;20036;-83
2021/06/21 02:59:05;;;;;;;0.40;0.40;;;15.70;82.00;;;;;;5058083;28;20379;-83
2021/06/21 03:01:31;;;;;;;0.50;0.50;;;15.70;82.00;;;;;;5058652;28;20108;-83
2021/06/21 03:03:59;;;;;;;0.60;0.50;;;15.70;82.00;;;;;;5074650;28;20047;-83
2021/06/21 03:06:27;;;;;;;1.27;0.73;;;15.60;82.00;;;;;;5074888;28;20482;-84
2021/06/21 03:08:54;;;;;;;0.52;0.50;;;15.50;82.00;;;;;;5041667;28;20044;-83
2021/06/21 03:11:21;;;;;;;0.93;0.52;;;15.50;82.10;;;;;;5078263;28;20036;-84
2021/06/21 03:13:51;;;;;;;0.60;0.60;;;15.50;82.20;;;;;;5046957;28;20027;-83
2021/06/21 03:16:18;;;;;;;0.60;0.60;;;15.40;82.30;;;;;;5061717;28;20094;-83
2021/06/21 03:18:47;;;;;;;0.50;0.50;;;15.40;82.40;;;;;;5044038;28;20466;-83
2021/06/21 03:21:16;;;;;;;0.57;0.50;;;15.30;82.50;;;;;;5060073;28;20123;-83
2021/06/21 03:23:42;;;;;;;0.95;0.50;;;15.30;82.60;;;;;;5044103;28;20028;-83
2021/06/21 03:26:08;;;;;;;0.40;0.40;;;15.20;82.60;;;;;;5060462;28;20154;-83
2021/06/21 03:28:34;;;;;;;0.47;0.40;;;15.20;82.60;;;;;;5077405;28;20036;-84
2021/06/21 03:31:03;;;;;;;0.73;0.60;;;15.20;83.50;;;;;;5078254;28;20039;-83
2021/06/21 03:33:30;;;;;;;0.40;0.40;;;15.10;82.70;;;;;;5075482;28;20424;-84
2021/06/21 03:35:56;;;;;;;0.40;0.40;;;15.10;82.90;;;;;;5075125;28;20484;-84
2021/06/21 03:38:25;;;;;;;1.10;0.63;;;15.10;82.90;;;;;;5074788;28;20040;-86
2021/06/21 03:40:52;;;;;;;0.80;0.70;;;15.10;82.90;;;;;;5074697;28;20048;-85
2021/06/21 03:43:20;;;;;;;0.63;0.52;;;15.00;83.00;;;;;;5057855;28;20052;-85
2021/06/21 03:45:47;;;;;;;1.05;0.50;;;15.00;83.00;;;;;;5057870;28;20097;-84
2021/06/21 03:48:13;;;;;;;0.63;0.63;;;15.00;83.10;;;;;;5057303;28;20375;-84
2021/06/21 03:50:39;;;;;;;0.40;0.40;;;14.90;83.10;;;;;;5057374;28;20042;-83
2021/06/21 03:53:06;;;;;;;0.40;0.40;;;14.90;83.10;;;;;;5057372;28;20046;-84
2021/06/21 03:55:32;;;;;;;0.40;0.40;;;14.90;83.10;;;;;;5057316;28;20086;-84
2021/06/21 03:57:59;;;;;;;0.50;0.50;;;14.90;83.20;;;;;;5057739;28;20051;-86
2021/06/21 04:00:27;;;;;;;0.57;0.40;;;14.90;83.30;;;;;;5074226;28;20036;-85
2021/06/21 04:02:56;;;;;;;0.73;0.40;;;14.90;83.30;;;;;;5057798;28;20044;-84
2021/06/21 04:05:22;;;;;;;0.65;0.38;;;14.90;83.30;;;;;;5058156;28;20028;-85
2021/06/21 04:07:48;;;;;;;0.35;0.35;;;14.90;83.20;;;;;;5041086;28;20037;-84
2021/06/21 04:10:17;;;;;;;0.30;0.30;;;14.80;83.20;;;;;;5058001;28;20043;-85
2021/06/21 04:12:44;;;;;;;0.40;0.40;;;14.80;83.20;;;;;;5044683;28;20040;-84
2021/06/21 04:15:12;;;;;;;0.47;0.30;;;14.90;83.30;;;;;;5044499;28;20042;-84
2021/06/21 04:17:39;;;;;;;0.28;0.28;;;14.80;83.40;;;;;;5096988;28;20125;-83
2021/06/21 04:20:07;;;;;;;0.30;0.30;;;14.80;83.40;;;;;;5060696;28;20047;-83
2021/06/21 04:22:33;;;;;;;0.30;0.30;;;14.90;83.50;;;;;;5077541;28;20052;-83
2021/06/21 04:24:59;;;;;;;0.30;0.30;;;14.70;83.40;;;;;;5061266;28;20039;-84
2021/06/21 04:27:25;;;;;;;0.30;0.30;;;14.70;83.40;;;;;;5043860;28;20040;-84
2021/06/21 04:29:51;;;;;;;0.20;0.20;;;14.70;83.50;;;;;;5043839;28;20169;-83
2021/06/21 04:32:16;;;;;;;0.30;0.30;;;14.70;83.60;;;;;;5077005;28;20379;-84
2021/06/21 04:34:43;;;;;;;0.38;0.38;;;14.80;83.60;;;;;;5060436;28;20051;-82
2021/06/21 04:37:09;;;;;;;0.85;0.25;;;14.70;83.60;;;;;;5077241;28;20047;-83
2021/06/21 04:39:35;;;;;;;0.20;0.20;;;14.70;83.60;;;;;;5077309;28;20044;-83
2021/06/21 04:42:01;;;;;;;0.30;0.30;;;14.70;83.70;;;;;;5095047;28;20508;-82
2021/06/21 04:44:26;;;;;;;0.20;0.20;;;14.50;83.60;;;;;;5043603;28;20078;-83
2021/06/21 04:46:52;;;;;;;0.20;0.20;;;14.70;83.70;;;;;;5060625;28;20032;-83
2021/06/21 04:49:18;;;;;;;0.20;0.20;;;14.70;83.70;;;;;;5076886;28;20040;-82
2021/06/21 04:51:45;;;;;;;0.20;0.20;;;14.60;83.60;;;;;;5043163;28;20148;-83
2021/06/21 04:54:13;;;;;;;0.30;0.30;;;14.60;83.70;;;;;;5095366;28;20177;-83
2021/06/21 04:56:39;;;;;;;0.30;0.30;;;14.70;83.80;;;;;;5076601;28;20039;-82
2021/06/21 04:59:05;;;;;;;0.30;0.30;;;14.60;83.80;;;;;;5077490;28;20051;-84
2021/06/21 05:01:31;;;;;;;0.75;0.43;;;14.60;83.70;;;;;;5060799;28;20032;-84
2021/06/21 05:04:00;;;;;;;0.45;0.45;;;14.60;83.70;;;;;;5076678;28;20616;-84
2021/06/21 05:06:28;;;;;;;0.28;0.28;;;14.70;83.90;;;;;;5094892;28;20072;-84
2021/06/21 05:08:54;;;;;;;0.30;0.30;;;14.70;83.80;;;;;;5043863;28;20059;-85
2021/06/21 05:11:20;;;;;;;0.30;0.30;;;14.70;83.80;;;;;;5077412;28;20028;-85
2021/06/21 05:13:46;;;;;;;0.20;0.20;;;14.60;83.70;;;;;;5062228;28;20490;-82
2021/06/21 05:16:11;;;;;;;0.30;0.30;;;14.60;83.70;;;;;;5067434;28;20107;-81
2021/06/21 05:18:38;;;;;;;0.40;0.30;;;14.80;83.90;;;;;;5046814;28;20366;-84
2021/06/21 05:21:04;;;;;;;0.20;0.20;;;14.70;83.80;;;;;;5043776;28;20028;-85
2021/06/21 05:23:30;;;;;;;0.22;0.22;;;14.70;83.80;;;;;;5060714;28;20559;-82
2021/06/21 05:25:56;;;;;;;0.30;0.30;;;14.70;83.90;;;;;;5064663;28;20036;-82
2021/06/21 05:28:22;;;;;;;0.30;0.30;;;14.70;83.80;;;;;;5081190;28;20052;-85
2021/06/21 05:30:48;;;;;;;0.30;0.30;;;14.70;83.80;;;;;;5045333;28;20036;-83
2021/06/21 05:33:14;;;;;;;0.20;0.20;;;14.70;83.80;;;;;;5044459;28;20056;-85
2021/06/21 05:35:41;;;;;;;0.22;0.22;;;14.70;83.90;;;;;;5060517;28;20036;-84
2021/06/21 05:38:08;;;;;;;0.10;0.10;;;14.70;83.90;;;;;;5060942;28;20047;-84
2021/06/21 05:40:33;;;;;;;0.20;0.20;;;14.70;83.90;;;;;;5079033;28;20043;-84
2021/06/21 05:42:59;;;;;;;0.10;0.10;;;14.70;83.90;;;;;;5080271;28;20056;-84
2021/06/21 05:45:25;;;;;;;0.13;0.13;;;14.70;83.90;;;;;;5079921;28;20055;-82
2021/06/21 05:47:50;;;;;;;0.10;0.10;;;14.70;83.90;;;;;;5080566;28;20043;-83
2021/06/21 05:50:16;;;;;;;0.20;0.20;;;14.70;84.00;;;;;;5044487;28;20032;-83
2021/06/21 05:52:42;;;;;;;0.32;0.28;;;14.60;84.00;;;;;;5045090;28;20036;-83
2021/06/21 05:55:09;;;;;;;0.30;0.30;;;14.60;84.10;;;;;;5064253;28;20054;-82
2021/06/21 05:57:35;;;;;;;0.20;0.20;;;14.60;84.10;;;;;;5078991;28;20054;-82
2021/06/21 06:00:02;;;;;;;0.20;0.20;;;14.70;84.10;;;;;;5043716;28;20052;-81
2021/06/21 06:02:28;;;;;;;0.20;0.20;;;14.70;84.10;;;;;;5075981;28;20051;-82
2021/06/21 06:04:57;;;;;;;0.20;0.20;;;14.80;84.20;;;;;;5075915;28;20505;-88
2021/06/21 06:07:24;;;;;;;0.20;0.20;;;14.60;84.10;;;;;;5043397;28;20032;-84
2021/06/21 06:09:51;;;;;;;0.20;0.20;;;14.60;84.10;;;;;;5059860;28;20047;-85
2021/06/21 06:12:26;;;;;;;0.40;0.20;;;14.70;84.10;;;;;;5043574;28;20043;-83
2021/06/21 06:14:52;;;;;;;0.10;0.10;;;14.60;84.20;;;;;;5078898;28;20050;-83
2021/06/21 06:17:17;;;;;;;0.10;0.10;;;14.70;84.20;;;;;;5061681;28;20115;-81
2021/06/21 06:19:43;;;;;;;0.20;0.20;;;14.80;84.30;;;;;;5094776;28;20143;-83
2021/06/21 06:22:11;;;;;;;0.30;0.20;;;14.70;84.20;;;;;;5042386;28;20086;-81
2021/06/21 06:24:37;;;;;;;0.13;0.13;;;14.70;84.20;;;;;;5075971;28;20040;-81
2021/06/21 06:27:04;;;;;;;0.38;0.20;;;14.70;84.30;;;;;;5059046;28;20115;-81
2021/06/21 06:29:32;;;;;;;0.20;0.20;;;14.60;84.30;;;;;;5059803;28;20097;-82
2021/06/21 06:31:58;;;;;;;0.10;0.10;;;14.70;84.30;;;;;;5059790;28;20039;-83
2021/06/21 06:34:24;;;;;;;0.30;0.30;;;14.70;84.40;;;;;;5059596;28;20044;-82
2021/06/21 06:36:51;;;;;;;0.17;0.17;;;14.60;84.40;;;;;;5060755;28;20398;-85
2021/06/21 06:39:16;;;;;;;0.20;0.20;;;14.60;84.40;;;;;;5060691;28;20112;-83
2021/06/21 06:41:42;;;;;;;0.10;0.10;;;14.60;84.40;;;;;;5044293;28;20482;-81
2021/06/21 06:44:09;;;;;;;0.20;0.20;;;14.60;84.40;;;;;;5048609;28;20086;-81
2021/06/21 06:46:34;;;;;;;0.20;0.20;;;14.60;84.40;;;;;;5060283;28;20398;-81
2021/06/21 06:49:00;;;;;;;0.20;0.20;;;14.70;84.50;;;;;;5061835;28;20053;-81
2021/06/21 06:51:32;;;;;;;0.30;0.30;;;14.60;84.40;;;;;;5077967;28;20040;-79
2021/06/21 06:54:05;;;;;;;0.93;0.28;;;14.60;84.40;;;;;;5061750;28;20044;-78
2021/06/21 06:59:11;;;;;;;0.30;0.30;;;14.60;84.50;;;;;;5059971;28;20040;-81
2021/06/21 07:02:00;;;;;;;0.10;0.10;;;14.60;84.50;;;;;;5057321;28;20075;-84
2021/06/21 07:04:43;;;;;;;0.20;0.20;;;14.70;84.70;;;;;;5015183;28;20065;-83
2021/06/21 07:07:14;;;;;;;0.20;0.20;;;14.60;84.60;;;;;;4971441;28;20175;-82
2021/06/21 07:09:44;;;;;;;0.25;0.20;;;14.60;84.50;;;;;;4950640;28;20043;-89
2021/06/21 07:12:10;;;;;;;0.20;0.20;;;14.70;84.60;;;;;;4919837;28;20514;-82
2021/06/21 07:14:36;;;;;;;0.20;0.20;;;14.60;84.60;;;;;;4970056;28;20061;-84
2021/06/21 07:17:02;;;;;;;0.30;0.30;;;14.70;84.70;;;;;;4953116;28;20585;-85
2021/06/21 07:19:33;;;;;;;0.20;0.20;;;14.70;84.60;;;;;;4952931;28;20139;-86
2021/06/21 07:22:28;;;;;;;0.10;0.10;;;14.70;84.70;;;;;;4933680;29;20043;-89
2021/06/21 07:24:53;;;;;;;0.20;0.20;;;14.70;84.60;;;;;;4915746;29;20044;-85
2021/06/21 07:27:21;;;;;;;0.20;0.20;;;14.70;84.50;;;;;;4908185;29;20059;-87
2021/06/21 07:29:47;;;;;;;0.20;0.20;;;14.70;84.60;;;;;;4921615;29;20462;-80
2021/06/21 07:32:36;;;;;;;0.10;0.10;;;14.80;84.60;;;;;;4920865;28;20090;-85
2021/06/21 07:35:02;;;;;;;0.25;0.25;;;14.80;84.70;;;;;;4929703;29;20047;-82
2021/06/21 07:37:42;;;;;;;0.20;0.10;;;14.80;84.60;;;;;;4922067;29;20053;-83
2021/06/21 07:40:08;;;;;;;0.20;0.20;;;14.80;84.70;;;;;;4942756;28;20043;-81
2021/06/21 07:42:45;;;;;;;0.10;0.10;;;14.80;84.60;;;;;;4955487;28;20062;-85
2021/06/21 07:45:12;;;;;;;0.20;0.20;;;14.80;84.50;;;;;;4938904;28;20096;-82
2021/06/21 07:47:38;;;;;;;0.20;0.20;;;14.90;84.60;;;;;;4993167;28;20507;-83
2021/06/21 07:50:06;;;;;;;0.20;0.20;;;14.90;84.60;;;;;;4994464;28;20057;-83
2021/06/21 07:52:40;;;;;;;0.25;0.25;;;14.90;84.60;;;;;;4995328;28;20073;-82
2021/06/21 07:55:07;;;;;;;0.15;0.15;;;14.90;84.60;;;;;;5008421;28;20051;-83
2021/06/21 07:57:32;;;;;;;0.10;0.10;;;15.00;84.60;;;;;;5091917;28;20569;-82
2021/06/21 07:59:58;;;;;;;0.20;0.20;;;15.00;84.50;;;;;;5061072;28;20074;-82
2021/06/21 08:02:24;;;;;;;0.20;0.20;;;15.00;84.60;;;;;;5080223;28;20048;-82
2021/06/21 08:05:52;;;;;;;0.30;0.30;;;15.10;84.60;;;;;;5064609;28;20048;-83
2021/06/21 08:11:57;;;;;;;0.20;0.20;;;15.00;84.60;;;;;;4976899;28;20035;-83
2021/06/21 08:14:26;;;;;;;0.20;0.15;;;15.00;84.50;;;;;;4957501;28;20050;-85
2021/06/21 08:16:54;;;;;;;0.20;0.20;;;14.90;84.50;;;;;;4956611;28;20090;-82
2021/06/21 08:19:20;;;;;;;0.20;0.20;;;15.00;84.60;;;;;;4937127;29;20055;-84
2021/06/21 08:21:49;;;;;;;0.25;0.25;;;15.00;84.70;;;;;;4935286;29;20055;-81
2021/06/21 08:24:35;;;;;;;0.40;0.20;;;15.10;84.90;;;;;;4935831;29;20035;-85
2021/06/21 08:27:10;;;;;;;1.10;0.30;;;15.00;84.80;;;;;;4936517;29;20039;-88
2021/06/21 08:29:36;;;;;;;0.20;0.20;;;14.90;84.70;;;;;;4936245;29;20078;-86
2021/06/21 08:32:02;;;;;;;0.30;0.30;;;15.00;84.80;;;;;;4937358;29;20133;-85
2021/06/21 08:35:15;;;;;;;0.20;0.20;;;15.10;84.80;;;;;;4921251;29;20044;-86
2021/06/21 08:37:41;;;;;;;0.20;0.20;;;15.10;84.80;;;;;;4914921;29;20138;-85
2021/06/21 08:40:10;;;;;;;0.30;0.30;;;15.00;84.60;;;;;;4902284;29;20480;-83
2021/06/21 08:42:39;;;;;;;0.30;0.30;;;15.10;84.60;;;;;;4928830;28;20049;-85
2021/06/21 08:45:09;;;;;;;0.25;0.25;;;15.10;84.70;;;;;;4972209;28;20047;-86
2021/06/21 08:47:44;;;;;;;0.20;0.20;;;15.10;84.80;;;;;;4956912;28;20065;-86
2021/06/21 08:50:12;;;;;;;0.43;0.30;;;15.10;84.80;;;;;;5003169;28;20190;-86
2021/06/21 08:52:43;;;;;;;0.30;0.30;;;15.00;84.80;;;;;;5034413;28;20045;-86
2021/06/21 08:55:13;;;;;;;0.30;0.30;;;15.10;85.00;;;;;;5016276;28;20496;-84
2021/06/21 08:58:03;;;;;;;0.20;0.20;;;15.00;84.90;;;;;;5018557;28;20041;-87
2021/06/21 09:00:34;;;;;;;0.30;0.30;;;15.10;85.10;;;;;;4996741;28;20053;-88
2021/06/21 09:03:02;;;;;;;0.20;0.20;;;15.10;85.00;;;;;;4996837;28;20089;-84
2021/06/21 09:05:32;;;;;;;0.20;0.20;;;15.10;85.00;;;;;;4996735;28;20057;-80
2021/06/21 09:08:04;;;;;;;0.60;0.30;;;15.10;85.00;;;;;;5023516;28;20048;-81
2021/06/21 09:11:02;;;;;;;0.20;0.20;;;15.20;85.00;;;;;;5004700;28;20095;-84
2021/06/21 09:13:34;;;;;;;0.22;0.22;;;15.20;85.00;;;;;;4935334;29;20047;-84
2021/06/21 09:16:03;;;;;;;0.20;0.20;;;15.10;85.00;;;;;;4921433;29;20130;-85
2021/06/21 09:21:51;;;;;;;0.20;0.20;;;15.30;85.10;;;;;;4849426;29;20065;-84
2021/06/21 09:24:27;;;;;;;0.30;0.30;;;15.30;85.00;;;;;;4845439;29;20532;-84
2021/06/21 09:26:56;;;;;;;0.28;0.28;;;15.20;85.00;;;;;;4829925;29;20072;-82
2021/06/21 09:29:43;;;;;;;0.20;0.20;;;15.20;85.00;;;;;;4829301;29;20038;-87
2021/06/21 09:32:59;;;;;;;0.20;0.20;;;15.30;85.20;;;;;;4859715;29;20049;-87
2021/06/21 09:36:18;;;;;;;0.30;0.30;;;15.40;85.20;;;;;;4859904;29;20050;-83
2021/06/21 09:42:50;;;;;;;0.25;0.20;;;15.30;84.90;;;;;;4906694;29;20032;-85
2021/06/21 09:45:22;;;;;;;1.45;0.20;;;15.20;84.70;;;;;;4916527;29;20040;-86
2021/06/21 09:47:51;;;;;;;0.20;0.20;;;15.40;84.80;;;;;;4903845;29;20075;-86
2021/06/21 09:50:23;;;;;;;0.20;0.20;;;15.40;84.60;;;;;;4936982;28;20135;-81
2021/06/21 09:52:55;;;;;;;0.20;0.20;;;15.40;84.60;;;;;;4957287;28;20039;-84
2021/06/21 09:55:37;;;;;;;0.20;0.20;;;15.40;84.60;;;;;;4973062;28;20051;-85
2021/06/21 09:58:21;;;;;;;0.28;0.20;;;15.40;84.70;;;;;;4972606;28;20090;-81
2021/06/21 10:00:52;;;;;;;0.30;0.30;;;15.40;84.80;;;;;;4957233;28;20050;-83
2021/06/21 10:03:22;;;;;;;;;;;15.50;84.70;;;;;;4956631;28;20098;-82
2021/06/21 10:06:13;;;;;;;0.20;0.20;;;15.50;84.50;;;;;;4956298;28;20384;-82
2021/06/21 10:08:52;;;;;;;0.52;0.30;;;15.60;84.50;;;;;;4960729;28;20118;-86
2021/06/21 10:11:37;;;;;;;0.28;0.20;;;15.50;84.40;;;;;;4976332;28;20045;-83
2021/06/21 10:14:07;;;;;;;0.20;0.20;;;15.60;84.50;;;;;;4997556;28;20037;-86
2021/06/21 10:16:38;;;;;;;0.20;0.20;;;15.60;84.40;;;;;;5015274;28;20435;-82
2021/06/21 10:19:05;;;;;;;0.20;0.20;;;15.60;84.50;;;;;;5031938;28;20103;-83
2021/06/21 10:21:32;;;;;;;0.20;0.20;;;15.60;84.50;;;;;;4998586;28;20073;-83
2021/06/21 10:23:59;;;;;;;0.47;0.40;;;15.60;84.60;;;;;;5031203;28;20099;-83
2021/06/21 10:26:40;;;;;;;0.40;0.30;;;15.60;84.60;;;;;;4997417;28;20045;-85
2021/06/21 10:29:11;;;;;;;0.60;0.30;;;15.60;84.70;;;;;;4991903;28;20081;-84
2021/06/21 10:34:40;;;;;;;;;;;15.70;84.70;;;;;;4919642;29;20040;-82
2021/06/21 10:37:29;;;;;;;0.50;0.22;;;15.80;84.50;;;;;;4901958;29;19990;-81
2021/06/21 10:40:56;;;;;;;0.20;0.20;;;15.80;84.40;;;;;;4892327;29;20043;-83
2021/06/21 10:43:53;;;;;;;0.20;0.20;;;15.90;84.50;;;;;;4895744;29;20044;-83
2021/06/21 10:46:27;;;;;;;0.10;0.10;;;15.90;84.30;;;;;;4883541;29;20036;-81
2021/06/21 10:49:31;;;;;;;0.17;0.17;;;16.10;84.30;;;;;;4900592;29;20032;-82
2021/06/21 10:52:33;;;;;;;0.15;0.15;;;16.00;84.10;;;;;;4901992;29;20423;-82
2021/06/21 10:58:35;;;;;;;0.25;0.25;;;16.10;84.30;;;;;;4839628;29;20140;-82
2021/06/21 11:01:11;;;;;;;0.15;0.10;;;16.00;84.80;;;;;;4916103;29;20060;-80
2021/06/21 11:03:45;;;;;;;0.20;0.20;;;16.10;84.30;;;;;;4917946;29;20072;-82
2021/06/21 11:06:33;;;;;;;0.20;0.20;;;16.10;84.30;;;;;;4877457;29;20045;-81
2021/06/21 11:08:59;;;;;;;0.40;0.10;;;15.90;84.30;;;;;;4879892;29;20113;-81
2021/06/21 11:11:44;;;;;;;0.20;0.20;;;16.10;84.40;;;;;;4924061;28;20042;-79
2021/06/21 11:14:23;;;;;;;0.52;0.30;;;16.10;84.60;;;;;;4980494;28;20042;-80
2021/06/21 11:17:17;;;;;;;0.25;0.25;;;16.00;84.50;;;;;;4968486;28;20034;-83
2021/06/21 11:19:43;;;;;;;0.10;0.10;;;16.20;84.40;;;;;;4995993;28;20515;-80
2021/06/21 11:22:29;;;;;;;0.38;0.30;;;16.30;84.30;;;;;;4986309;28;20050;-82
2021/06/21 11:24:56;;;;;;;0.28;0.25;;;16.30;84.70;;;;;;5012808;28;20531;-81
2021/06/21 11:27:24;;;;;;;0.20;0.20;;;16.50;84.10;;;;;;4996177;28;20041;-81
2021/06/21 11:29:56;;;;;;;0.20;0.20;;;16.30;83.60;;;;;;5010559;28;20507;-79
2021/06/21 11:32:23;;;;;;;0.30;0.30;;;16.50;83.70;;;;;;4998740;28;20061;-82
2021/06/21 11:34:53;;;;;;;0.20;0.20;;;16.30;83.70;;;;;;5000807;28;20045;-81
2021/06/21 11:37:38;;;;;;;0.57;0.30;;;16.30;83.90;;;;;;5033133;28;20054;-80
2021/06/21 11:40:26;;;;;;;0.20;0.20;;;16.30;84.20;;;;;;5106085;28;20048;-82
2021/06/21 11:43:09;;;;;;;0.32;0.20;;;16.20;84.20;;;;;;5063295;28;20047;-82
2021/06/21 11:45:56;;;;;;;0.20;0.20;;;16.20;84.30;;;;;;5074173;28;20091;-79
2021/06/21 11:48:36;;;;;;;0.20;0.20;;;16.20;84.40;;;;;;5073923;28;20032;-78
2021/06/21 11:51:16;;;;;;;0.30;0.30;;;16.30;84.40;;;;;;5073454;28;20119;-79
2021/06/21 11:53:43;;;;;;;0.30;0.30;;;16.40;84.10;;;;;;5073543;28;20067;-79
2021/06/21 11:56:12;;;;;;;0.20;0.20;;;16.50;83.80;;;;;;5075469;28;20051;-79
2021/06/21 11:58:37;;;;;;;0.32;0.32;;;16.70;83.90;;;;;;5062398;28;20148;-80
2021/06/21 12:01:15;;;;;;;0.25;0.25;;;16.60;83.50;;;;;;5057968;28;20045;-79
2021/06/21 12:03:44;;;;;;;0.20;0.20;;;16.60;83.60;;;;;;5059561;28;20140;-78
2021/06/21 12:06:15;;;;;;;0.20;0.20;;;16.60;83.60;;;;;;5077174;28;20040;-78
2021/06/21 12:08:41;;;;;;;;;;;16.60;83.30;;;;;;5077820;28;20045;-78
2021/06/21 12:11:13;;;;;;;0.28;0.28;;;16.60;83.50;;;;;;5074959;28;19919;-78
2021/06/21 12:13:40;;;;;;;0.30;0.30;;;16.70;83.60;;;;;;5057057;28;20075;-79
2021/06/21 12:16:14;;;;;;;0.28;0.28;;;16.90;83.40;;;;;;5048242;28;20042;-78
2021/06/21 12:18:40;;;;;;;0.30;0.30;;;16.90;83.20;;;;;;5103505;28;20069;-76
2021/06/21 12:21:05;;;;;;;0.20;0.20;;;17.10;82.80;;;;;;5087259;28;20557;-77
2021/06/21 12:23:31;;;;;;;0.30;0.30;;;17.10;82.70;;;;;;5097464;28;20020;-76
2021/06/21 12:25:57;;;;;;;0.50;0.40;;;17.00;82.80;;;;;;5114693;28;20108;-78
2021/06/21 12:28:26;;;;;;;0.30;0.30;;;17.10;82.90;;;;;;5094080;28;20068;-78
2021/06/21 12:30:55;;;;;;;0.30;0.30;;;17.00;83.50;;;;;;5095137;28;20027;-78
2021/06/21 12:33:30;;;;;;;0.28;0.28;;;16.90;83.00;;;;;;5099076;28;20032;-78
2021/06/21 12:36:17;;;;;;;0.30;0.30;;;16.90;83.20;;;;;;5093299;28;20046;-77
2021/06/21 12:39:02;;;;;;;0.10;0.10;;;17.00;83.20;;;;;;5095987;28;20032;-78
2021/06/21 12:41:30;;;;;;;0.20;0.20;;;17.00;83.10;;;;;;5092694;28;20044;-77
2021/06/21 12:44:03;;;;;;;0.30;0.30;;;17.10;83.20;;;;;;5108376;28;20094;-78
2021/06/21 12:46:33;;;;;;;0.20;0.20;;;17.10;83.00;;;;;;5046218;28;20032;-77
2021/06/21 12:49:02;;;;;;;0.30;0.30;;;17.10;82.80;;;;;;5076446;28;20036;-77
2021/06/21 12:51:28;;;;;;;0.30;0.30;;;17.10;82.90;;;;;;5095111;28;20060;-77
2021/06/21 12:53:56;;;;;;;0.35;0.35;;;17.00;82.70;;;;;;5076824;28;20089;-78
2021/06/21 12:56:24;;;;;;;0.40;0.40;;;17.00;82.90;;;;;;5076634;28;20063;-79
2021/06/21 12:58:51;;;;;;;0.43;0.40;;;16.90;83.20;;;;;;5094936;28;20111;-78
2021/06/21 13:01:22;;;;;;;0.30;0.30;;;16.80;83.20;;;;;;5062692;28;20032;-78
2021/06/21 13:03:48;;;;;;;0.30;0.30;;;16.60;83.50;;;;;;5066606;28;20048;-80
2021/06/21 13:06:27;;;;;;;0.22;0.22;;;16.60;83.80;;;;;;5076826;28;20124;-79
2021/06/21 13:09:02;;;;;;;0.40;0.40;;;16.50;83.80;;;;;;5076730;28;21266;-81
2021/06/21 13:11:28;;;;;;;0.38;0.38;;;16.50;84.10;;;;;;5077833;28;20048;-80
2021/06/21 13:13:53;;;;;;;0.30;0.30;;;16.60;84.20;;;;;;5079768;28;20063;-80
2021/06/21 13:16:33;;;;;;;0.30;0.30;;;16.60;84.00;;;;;;5080763;28;20093;-82
2021/06/21 13:19:01;;;;;;;0.57;0.40;;;16.80;83.70;;;;;;5062696;28;20040;-78
2021/06/21 13:21:56;;;;;;;0.40;0.30;;;17.00;83.10;;;;;;5079579;28;20382;-86
2021/06/21 13:24:35;;;;;;;0.20;0.20;;;17.40;82.50;;;;;;4998512;28;20050;-85
2021/06/21 13:27:02;;;;;;;0.30;0.30;;;17.60;81.60;;;;;;5015626;28;20133;-87
2021/06/21 13:29:30;;;;;;;0.30;0.30;;;17.60;81.20;;;;;;4982522;28;20167;-84